Armutova, Turkey
Current Conditions -  °F | °C
As of 1:50 PM on Wednesday 26 Nov 2014 (Local Time) from LTFD Reporting Station
Broken Clouds Broken Clouds  
Wind Chill: 50°   Ceiling: 10000
Heat Index: 50°   Visibility: 6mi
Dew Point: 32°   Wind: 17mph
Humidity: 50%   Direction: 70°ENE
Pressure: 30.12"   Gusts: NA
Location:  39.39°N, 26.84°E
Report Text: LTFD 261050Z 07015KT 9999 SCT035 BKN100 10/00 Q1020
Loading
Personal Weather Stations






























Interactive Weather Map New forecast layout! Learn more

10-Day Weather Forecast

Advertisements
Track Severe Weather on mobile